createdAt,value
2023-02-27T00:00:57.434Z,102715.16
2023-02-27T00:03:26.138Z,102723.41
2023-02-27T00:05:56.288Z,102721.19
2023-02-27T00:08:25.628Z,102717.38
2023-02-27T00:10:53.979Z,102706.84
2023-02-27T00:13:23.681Z,102721.59
2023-02-27T00:15:52.117Z,102724.94
2023-02-27T00:18:20.556Z,102724.66
2023-02-27T00:20:51.221Z,102729.38
2023-02-27T00:23:19.505Z,102719.22
2023-02-27T00:25:48.475Z,102727.66
2023-02-27T00:28:16.841Z,102720.16
2023-02-27T00:30:46.607Z,102713.19
2023-02-27T00:33:15.072Z,102711.22
2023-02-27T00:35:43.916Z,102716.00
2023-02-27T00:38:12.302Z,102704.97
2023-02-27T00:40:41.275Z,102712.41
2023-02-27T00:43:09.585Z,102713.47
2023-02-27T00:45:37.896Z,102713.34
2023-02-27T00:48:07.602Z,102718.31
2023-02-27T00:50:36.310Z,102721.78
2023-02-27T00:53:05.187Z,102723.88
2023-02-27T00:55:33.522Z,102723.06
2023-02-27T00:58:01.927Z,102725.38
2023-02-27T01:00:30.364Z,102715.66
2023-02-27T01:02:58.855Z,102717.31
2023-02-27T01:05:28.820Z,102715.91
2023-02-27T01:07:57.170Z,102713.47
2023-02-27T01:10:25.616Z,102719.03
2023-02-27T01:12:54.208Z,102710.69
2023-02-27T01:15:22.608Z,102714.41
2023-02-27T01:17:51.537Z,102712.78
2023-02-27T01:20:20.119Z,102708.94
2023-02-27T01:22:49.870Z,102711.84
2023-02-27T01:25:18.511Z,102703.50
2023-02-27T01:27:46.795Z,102714.63
2023-02-27T01:30:16.840Z,102706.28
2023-02-27T01:32:45.341Z,102706.28
2023-02-27T01:35:14.127Z,102703.28
2023-02-27T01:37:42.501Z,102707.78
2023-02-27T01:40:14.556Z,102713.31
2023-02-27T01:42:43.382Z,102710.09
2023-02-27T01:45:36.976Z,102709.28
2023-02-27T01:48:18.360Z,102703.59
2023-02-27T01:50:52.310Z,102715.09
2023-02-27T01:53:24.948Z,102712.63
2023-02-27T01:55:57.779Z,102710.19
2023-02-27T01:58:27.038Z,102711.50
2023-02-27T02:00:56.195Z,102716.44
2023-02-27T02:03:30.939Z,102708.69
2023-02-27T02:06:02.458Z,102708.13
2023-02-27T02:08:34.599Z,102718.41
2023-02-27T02:11:07.126Z,102706.41
2023-02-27T02:13:37.070Z,102709.28
2023-02-27T02:16:23.188Z,102710.56
2023-02-27T02:19:16.674Z,102708.34
2023-02-27T02:22:46.427Z,102711.25
2023-02-27T02:26:18.431Z,102706.38
2023-02-27T02:29:42.543Z,102707.88
2023-02-27T02:33:03.093Z,102707.53
2023-02-27T02:36:08.066Z,102707.72
2023-02-27T02:39:35.758Z,102715.38
2023-02-27T02:42:14.450Z,102711.53
2023-02-27T02:44:58.576Z,102711.41
2023-02-27T02:47:36.905Z,102705.50
2023-02-27T02:50:13.901Z,102709.66
2023-02-27T02:52:52.768Z,102714.38
2023-02-27T02:55:30.270Z,102721.31
2023-02-27T02:58:07.090Z,102717.03
2023-02-27T03:00:40.800Z,102711.34
2023-02-27T03:03:15.507Z,102717.03
2023-02-27T03:05:51.325Z,102714.81
2023-02-27T03:08:26.598Z,102720.97
2023-02-27T03:10:59.260Z,102720.38
2023-02-27T03:13:36.115Z,102720.59
2023-02-27T03:16:12.148Z,102729.84
2023-02-27T03:18:46.647Z,102730.88
2023-02-27T03:21:22.701Z,102730.53
2023-02-27T03:23:54.820Z,102737.47
2023-02-27T03:26:30.919Z,102732.59
2023-02-27T03:29:03.764Z,102729.34
2023-02-27T03:31:39.261Z,102733.50
2023-02-27T03:34:15.953Z,102730.22
2023-02-27T03:36:51.370Z,102732.28
2023-02-27T03:39:31.206Z,102735.38
2023-02-27T03:42:12.478Z,102736.41
2023-02-27T03:44:48.116Z,102732.38
2023-02-27T03:47:16.442Z,102734.66
2023-02-27T03:49:44.824Z,102732.44
2023-02-27T03:52:13.274Z,102736.16
2023-02-27T03:54:50.375Z,102745.16
2023-02-27T03:57:18.829Z,102742.50
2023-02-27T03:59:48.567Z,102737.47
2023-02-27T04:02:17.563Z,102738.75
2023-02-27T04:04:46.231Z,102733.84
2023-02-27T04:07:26.262Z,102740.44
2023-02-27T04:10:20.794Z,102743.41
2023-02-27T04:13:28.128Z,102746.06
2023-02-27T04:16:38.175Z,102755.72
2023-02-27T04:19:30.061Z,102759.81
2023-02-27T04:22:09.594Z,102757.41
2023-02-27T04:24:47.961Z,102757.41
2023-02-27T04:27:28.349Z,102756.59
2023-02-27T04:30:03.215Z,102764.78
2023-02-27T04:32:39.684Z,102757.25
2023-02-27T04:35:13.158Z,102758.28
2023-02-27T04:37:49.193Z,102764.03
2023-02-27T04:40:23.477Z,102761.59
2023-02-27T04:42:56.014Z,102773.47
2023-02-27T04:45:28.142Z,102770.22
2023-02-27T04:48:04.422Z,102766.16
2023-02-27T04:50:38.763Z,102772.50
2023-02-27T04:53:14.962Z,102771.09
2023-02-27T04:55:49.536Z,102763.13
2023-02-27T04:58:24.970Z,102765.78
2023-02-27T05:01:00.144Z,102771.53
2023-02-27T05:03:34.902Z,102768.28
2023-02-27T05:06:04.343Z,102783.00
2023-02-27T05:08:40.714Z,102773.25
2023-02-27T05:11:15.226Z,102787.16
2023-02-27T05:13:48.684Z,102788.44
2023-02-27T05:16:26.866Z,102789.47
2023-02-27T05:18:57.830Z,102790.28
2023-02-27T05:21:36.101Z,102787.41
2023-02-27T05:24:15.470Z,102784.75
2023-02-27T05:27:12.129Z,102790.06
2023-02-27T05:29:48.880Z,102792.47
2023-02-27T05:32:33.736Z,102793.53
2023-02-27T05:35:16.942Z,102798.63
2023-02-27T05:37:51.051Z,102800.09
2023-02-27T05:40:26.057Z,102795.13
2023-02-27T05:43:01.043Z,102801.47
2023-02-27T05:45:34.622Z,102810.47
2023-02-27T05:48:08.509Z,102803.56
2023-02-27T05:50:39.800Z,102807.25
2023-02-27T05:53:15.766Z,102818.66
2023-02-27T05:55:49.389Z,102812.78
2023-02-27T05:58:23.840Z,102813.34
2023-02-27T06:00:56.281Z,102809.66
2023-02-27T06:03:24.881Z,102818.66
2023-02-27T06:05:56.958Z,102811.75
2023-02-27T06:08:26.571Z,102828.25
2023-02-27T06:10:55.263Z,102824.41
2023-02-27T06:13:24.921Z,102828.84
2023-02-27T06:15:53.440Z,102833.34
2023-02-27T06:18:23.051Z,102838.06
2023-02-27T06:20:54.367Z,102839.69
2023-02-27T06:23:24.158Z,102832.78
2023-02-27T06:25:52.486Z,102845.00
2023-02-27T06:28:20.863Z,102845.00
2023-02-27T06:30:49.165Z,102860.72
2023-02-27T06:33:17.441Z,102858.06
2023-02-27T06:35:48.940Z,102861.97
2023-02-27T06:38:17.330Z,102856.66
2023-02-27T06:40:47.066Z,102855.03
2023-02-27T06:43:15.875Z,102864.03
2023-02-27T06:45:44.587Z,102868.31
2023-02-27T06:48:14.800Z,102869.53
2023-02-27T06:50:43.202Z,102868.69
2023-02-27T06:53:11.513Z,102876.03
2023-02-27T06:55:42.123Z,102873.97
2023-02-27T06:58:12.210Z,102879.06
2023-02-27T07:00:40.510Z,102878.19
2023-02-27T07:03:09.503Z,102876.31
2023-02-27T07:05:38.192Z,102884.59
2023-02-27T07:08:06.625Z,102893.31
2023-02-27T07:10:35.198Z,102888.56
2023-02-27T07:13:03.889Z,102894.41
2023-02-27T07:15:33.573Z,102890.28
2023-02-27T07:18:01.925Z,102890.00
2023-02-27T07:20:30.287Z,102901.16
2023-02-27T07:22:58.603Z,102896.00
2023-02-27T07:25:26.899Z,102902.06
2023-02-27T07:27:56.101Z,102901.19
2023-02-27T07:30:24.443Z,102906.47
2023-02-27T07:32:54.200Z,102913.38
2023-02-27T07:35:22.765Z,102917.59
2023-02-27T07:37:51.092Z,102919.94
2023-02-27T07:40:20.269Z,102930.28
2023-02-27T07:42:50.659Z,102925.75
2023-02-27T07:45:20.068Z,102920.34
2023-02-27T07:47:48.348Z,102926.16
2023-02-27T07:50:18.837Z,102915.97
2023-02-27T07:52:47.178Z,102927.16
2023-02-27T07:55:15.881Z,102922.31
2023-02-27T07:57:45.853Z,102929.53
2023-02-27T08:00:16.200Z,102933.06
2023-02-27T08:02:45.039Z,102926.94
2023-02-27T08:05:13.720Z,102929.66
2023-02-27T08:07:43.498Z,102925.16
2023-02-27T08:10:13.307Z,102927.84
2023-02-27T08:12:41.672Z,102924.13
2023-02-27T08:15:13.904Z,102924.94
2023-02-27T08:17:42.431Z,102918.81
2023-02-27T08:20:13.743Z,102931.31
2023-02-27T08:22:44.076Z,102927.38
2023-02-27T08:25:12.774Z,102918.16
2023-02-27T08:27:41.896Z,102928.59
2023-02-27T08:30:13.275Z,102924.28
2023-02-27T08:32:41.811Z,102930.13
2023-02-27T08:35:10.962Z,102929.59
2023-02-27T08:37:39.555Z,102930.47
2023-02-27T08:40:12.357Z,102928.63
2023-02-27T08:42:40.815Z,102936.34
2023-02-27T08:45:10.845Z,102942.97
2023-02-27T08:47:39.903Z,102942.91
2023-02-27T08:50:10.274Z,102945.53
2023-02-27T08:52:38.643Z,102949.50
2023-02-27T08:55:10.666Z,102944.34
2023-02-27T08:57:39.119Z,102944.78
2023-02-27T09:00:10.199Z,102946.03
2023-02-27T09:02:39.558Z,102947.53
2023-02-27T09:05:08.820Z,102948.72
2023-02-27T09:07:37.456Z,102946.72
2023-02-27T09:10:08.951Z,102953.28
2023-02-27T09:12:37.614Z,102955.81
2023-02-27T09:15:07.255Z,102937.91
2023-02-27T09:17:35.569Z,102953.59
2023-02-27T09:20:04.971Z,102943.75
2023-02-27T09:22:33.352Z,102955.06
2023-02-27T09:25:02.017Z,102948.75
2023-02-27T09:27:31.742Z,102950.13
2023-02-27T09:30:00.767Z,102944.03
2023-02-27T09:32:29.382Z,102941.16
2023-02-27T09:34:58.345Z,102942.84
2023-02-27T09:37:26.861Z,102953.63
2023-02-27T09:39:55.224Z,102957.16
2023-02-27T09:42:28.084Z,102951.31
2023-02-27T09:45:04.715Z,102945.44
2023-02-27T09:47:39.869Z,102948.97
2023-02-27T09:50:33.465Z,102949.78
2023-02-27T09:53:02.228Z,102954.91
2023-02-27T09:55:36.561Z,102962.47
2023-02-27T09:58:21.898Z,102945.53
2023-02-27T10:00:58.328Z,102953.91
2023-02-27T10:03:44.375Z,102942.03
2023-02-27T10:06:26.907Z,102947.94
2023-02-27T10:09:13.654Z,102948.47
2023-02-27T10:11:56.651Z,102949.53
2023-02-27T10:14:39.383Z,102939.81
2023-02-27T10:17:19.548Z,102943.03
2023-02-27T10:19:49.510Z,102945.41
2023-02-27T10:22:26.038Z,102940.97
2023-02-27T10:25:01.570Z,102928.13
2023-02-27T10:27:32.328Z,102922.00
2023-02-27T10:30:29.312Z,102924.03
2023-02-27T10:33:09.859Z,102925.06
2023-02-27T10:35:42.270Z,102924.44
2023-02-27T10:38:18.153Z,102928.75
2023-02-27T10:40:48.035Z,102928.66
2023-02-27T10:43:19.479Z,102932.06
2023-02-27T10:45:47.938Z,102927.34
2023-02-27T10:48:18.389Z,102928.47
2023-02-27T10:50:51.046Z,102929.19
2023-02-27T10:53:23.619Z,102923.25
2023-02-27T10:56:02.637Z,102929.03
2023-02-27T10:58:34.867Z,102919.66
2023-02-27T11:01:05.816Z,102922.97
2023-02-27T11:03:40.644Z,102928.25
2023-02-27T11:06:14.434Z,102930.28
2023-02-27T11:08:43.677Z,102931.63
2023-02-27T11:11:13.790Z,102914.94
2023-02-27T11:13:44.059Z,102914.94
2023-02-27T11:16:17.500Z,102916.44
2023-02-27T11:18:49.057Z,102911.94
2023-02-27T11:21:23.702Z,102910.41
2023-02-27T11:23:58.171Z,102914.66
2023-02-27T11:26:33.083Z,102902.84
2023-02-27T11:29:22.387Z,102895.56
2023-02-27T11:31:55.546Z,102893.69
2023-02-27T11:34:37.285Z,102900.91
2023-02-27T11:37:09.355Z,102895.09
2023-02-27T11:39:40.940Z,102885.25
2023-02-27T11:42:18.010Z,102887.59
2023-02-27T11:44:58.151Z,102884.38
2023-02-27T11:47:31.941Z,102885.47
2023-02-27T11:50:35.653Z,102885.19
2023-02-27T11:53:39.231Z,102885.16
2023-02-27T11:56:14.871Z,102880.94
2023-02-27T11:58:50.845Z,102882.03
2023-02-27T12:01:26.359Z,102872.66
2023-02-27T12:04:05.888Z,102878.69
2023-02-27T12:06:42.191Z,102862.41
2023-02-27T12:09:35.027Z,102863.06
2023-02-27T12:12:08.548Z,102861.16
2023-02-27T12:14:47.404Z,102859.78
2023-02-27T12:17:24.542Z,102858.22
2023-02-27T12:20:18.694Z,102862.91
2023-02-27T12:22:52.543Z,102852.22
2023-02-27T12:25:46.440Z,102859.38
2023-02-27T12:28:40.915Z,102858.00
2023-02-27T12:31:41.715Z,102848.53
2023-02-27T12:34:23.013Z,102845.50
2023-02-27T12:36:53.180Z,102844.53
2023-02-27T12:39:25.590Z,102839.78
2023-02-27T12:42:28.283Z,102846.56
2023-02-27T12:45:21.921Z,102838.25
2023-02-27T12:48:02.672Z,102840.41
2023-02-27T12:50:51.078Z,102822.72
2023-02-27T12:53:37.474Z,102831.38
2023-02-27T12:56:14.851Z,102837.88
2023-02-27T12:58:55.834Z,102834.66
2023-02-27T13:01:38.531Z,102827.41
2023-02-27T13:04:20.078Z,102826.06
2023-02-27T13:06:54.934Z,102818.84
2023-02-27T13:09:35.151Z,102821.81
2023-02-27T13:12:20.599Z,102815.94
2023-02-27T13:14:53.389Z,102816.22
2023-02-27T13:17:30.725Z,102824.03
2023-02-27T13:20:04.828Z,102814.25
2023-02-27T13:22:39.929Z,102808.78
2023-02-27T13:25:15.861Z,102811.41
2023-02-27T13:27:50.128Z,102812.44
2023-02-27T13:30:25.906Z,102805.69
2023-02-27T13:33:01.380Z,102810.19
2023-02-27T13:35:42.560Z,102808.25
2023-02-27T13:38:41.935Z,102810.16
2023-02-27T13:41:39.541Z,102809.31
2023-02-27T13:44:41.454Z,102803.66
2023-02-27T13:47:43.517Z,102802.56
2023-02-27T13:50:51.490Z,102808.75
2023-02-27T13:53:24.159Z,102803.63
2023-02-27T13:56:01.203Z,102804.47
2023-02-27T13:58:30.955Z,102795.13
2023-02-27T14:01:05.597Z,102797.88
2023-02-27T14:03:34.385Z,102785.50
2023-02-27T14:06:07.321Z,102788.13
2023-02-27T14:08:49.670Z,102778.94
2023-02-27T14:11:30.092Z,102779.13
2023-02-27T14:14:05.682Z,102780.44
2023-02-27T14:16:55.967Z,102790.13
2023-02-27T14:19:59.263Z,102786.47
2023-02-27T14:23:11.228Z,102789.56
2023-02-27T14:25:43.218Z,102779.66
2023-02-27T14:28:24.653Z,102773.47
2023-02-27T14:30:57.819Z,102775.88
2023-02-27T14:33:39.974Z,102780.19
2023-02-27T14:36:16.810Z,102773.75
2023-02-27T14:38:45.245Z,102784.09
2023-02-27T14:41:33.036Z,102785.47
2023-02-27T14:44:02.373Z,102774.44
2023-02-27T14:46:33.913Z,102780.91
2023-02-27T14:49:06.865Z,102785.72
2023-02-27T14:51:39.126Z,102781.13
2023-02-27T14:54:15.512Z,102778.44
2023-02-27T14:56:56.030Z,102780.06
2023-02-27T14:59:27.663Z,102774.91
2023-02-27T15:02:01.903Z,102781.38
2023-02-27T15:04:34.477Z,102784.53
2023-02-27T15:07:04.074Z,102782.06
2023-02-27T15:09:38.368Z,102786.38
2023-02-27T15:12:07.459Z,102788.53
2023-02-27T15:14:40.053Z,102790.44
2023-02-27T15:17:18.743Z,102789.97
2023-02-27T15:19:54.676Z,102788.94
2023-02-27T15:22:38.440Z,102791.72
2023-02-27T15:25:23.833Z,102793.34
2023-02-27T15:27:52.162Z,102799.84
2023-02-27T15:30:23.626Z,102791.81
2023-02-27T15:32:53.673Z,102800.44
2023-02-27T15:35:33.709Z,102803.13
2023-02-27T15:38:02.806Z,102802.59
2023-02-27T15:40:34.037Z,102800.72
2023-02-27T15:43:03.109Z,102797.75
2023-02-27T15:45:35.438Z,102799.31
2023-02-27T15:48:04.579Z,102794.25
2023-02-27T15:50:38.592Z,102795.06
2023-02-27T15:53:13.637Z,102790.75
2023-02-27T15:55:45.882Z,102790.47
2023-02-27T15:58:24.345Z,102792.97
2023-02-27T16:01:00.683Z,102786.25
2023-02-27T16:03:34.262Z,102800.00
2023-02-27T16:06:05.147Z,102803.28
2023-02-27T16:08:33.614Z,102798.41
2023-02-27T16:11:02.396Z,102796.00
2023-02-27T16:13:36.192Z,102789.28
2023-02-27T16:16:08.323Z,102799.50
2023-02-27T16:18:45.733Z,102798.47
2023-02-27T16:21:18.296Z,102800.59
2023-02-27T16:23:47.241Z,102809.75
2023-02-27T16:26:31.906Z,102804.34
2023-02-27T16:29:03.767Z,102814.34
2023-02-27T16:31:34.813Z,102817.84
2023-02-27T16:34:13.890Z,102816.75
2023-02-27T16:36:53.301Z,102806.56
2023-02-27T16:39:21.645Z,102814.63
2023-02-27T16:41:50.532Z,102815.16
2023-02-27T16:44:19.228Z,102815.41
2023-02-27T16:46:47.660Z,102818.66
2023-02-27T16:49:22.684Z,102815.69
2023-02-27T16:51:53.132Z,102820.56
2023-02-27T16:54:22.043Z,102811.94
2023-02-27T16:56:52.029Z,102823.19
2023-02-27T16:59:35.001Z,102822.13
2023-02-27T17:02:06.309Z,102821.06
2023-02-27T17:04:36.307Z,102835.56
2023-02-27T17:07:07.140Z,102827.50
2023-02-27T17:09:35.912Z,102833.94
2023-02-27T17:12:04.210Z,102836.63
2023-02-27T17:14:32.494Z,102832.88
2023-02-27T17:17:00.894Z,102841.75
2023-02-27T17:19:29.379Z,102838.53
2023-02-27T17:21:57.653Z,102838.78
2023-02-27T17:24:27.683Z,102844.66
2023-02-27T17:26:57.278Z,102837.16
2023-02-27T17:29:25.582Z,102837.41
2023-02-27T17:31:54.006Z,102850.00
2023-02-27T17:34:22.407Z,102853.25
2023-02-27T17:36:50.794Z,102847.06
2023-02-27T17:39:19.083Z,102853.75
2023-02-27T17:41:49.040Z,102855.91
2023-02-27T17:44:17.361Z,102855.34
2023-02-27T17:46:45.633Z,102856.44
2023-02-27T17:49:13.915Z,102852.09
2023-02-27T17:51:42.271Z,102862.03
2023-02-27T17:54:10.953Z,102862.53
2023-02-27T17:56:39.708Z,102859.59
2023-02-27T17:59:09.385Z,102862.78
2023-02-27T18:01:37.734Z,102863.59
2023-02-27T18:04:08.005Z,102871.06
2023-02-27T18:06:36.322Z,102864.63
2023-02-27T18:09:05.516Z,102884.47
2023-02-27T18:11:33.938Z,102883.13
2023-02-27T18:14:02.301Z,102881.53
2023-02-27T18:16:32.813Z,102890.63
2023-02-27T18:19:04.137Z,102893.81
2023-02-27T18:21:32.918Z,102895.97
2023-02-27T18:24:01.348Z,102891.34
2023-02-27T18:26:32.314Z,102897.28
2023-02-27T18:29:03.410Z,102892.16
2023-02-27T18:31:35.303Z,102887.31
2023-02-27T18:34:04.798Z,102902.28
2023-02-27T18:36:33.994Z,102902.28
2023-02-27T18:39:02.665Z,102895.56
2023-02-27T18:41:31.101Z,102901.19
2023-02-27T18:43:59.615Z,102901.66
2023-02-27T18:46:29.176Z,102907.31
2023-02-27T18:48:59.633Z,102906.50
2023-02-27T18:51:28.428Z,102907.81
2023-02-27T18:53:56.851Z,102912.38
2023-02-27T18:56:26.975Z,102909.38
2023-02-27T18:59:01.962Z,102909.09
2023-02-27T19:01:33.005Z,102912.31
2023-02-27T19:04:04.917Z,102915.50
2023-02-27T19:06:35.615Z,102918.69
2023-02-27T19:09:06.256Z,102913.25
2023-02-27T19:11:35.653Z,102914.84
2023-02-27T19:14:07.168Z,102909.44
2023-02-27T19:16:36.139Z,102909.38
2023-02-27T19:19:07.686Z,102909.06
2023-02-27T19:21:36.345Z,102907.97
2023-02-27T19:24:06.958Z,102926.44
2023-02-27T19:26:35.721Z,102918.91
2023-02-27T19:29:05.635Z,102919.41
2023-02-27T19:31:34.541Z,102906.78
2023-02-27T19:34:03.030Z,102908.88
2023-02-27T19:36:34.594Z,102916.38
2023-02-27T19:39:04.218Z,102913.38
2023-02-27T19:41:33.534Z,102917.66
2023-02-27T19:44:02.110Z,102915.44
2023-02-27T19:46:33.928Z,102914.34
2023-02-27T19:49:06.085Z,102906.00
2023-02-27T19:51:36.051Z,102907.78
2023-02-27T19:54:04.813Z,102911.81
2023-02-27T19:56:33.217Z,102913.38
2023-02-27T19:59:02.204Z,102913.06
2023-02-27T20:01:33.681Z,102914.59
2023-02-27T20:04:02.745Z,102908.91
2023-02-27T20:06:34.045Z,102912.38
2023-02-27T20:09:03.728Z,102919.28
2023-02-27T20:11:33.059Z,102919.22
2023-02-27T20:14:02.029Z,102917.28
2023-02-27T20:16:34.466Z,102919.88
2023-02-27T20:19:06.160Z,102918.19
2023-02-27T20:21:35.597Z,102915.94
2023-02-27T20:24:06.112Z,102931.13
2023-02-27T20:26:37.064Z,102928.84
2023-02-27T20:29:08.688Z,102919.16
2023-02-27T20:31:39.410Z,102928.72
2023-02-27T20:34:10.924Z,102919.47
2023-02-27T20:36:42.565Z,102917.75
2023-02-27T20:39:13.691Z,102915.81
2023-02-27T20:41:41.815Z,102919.25
2023-02-27T20:44:11.484Z,102919.72
2023-02-27T20:46:42.285Z,102916.16
2023-02-27T20:49:12.793Z,102918.75
2023-02-27T20:51:41.897Z,102909.56
2023-02-27T20:54:16.557Z,102911.34
2023-02-27T20:56:45.330Z,102911.50
2023-02-27T20:59:16.407Z,102912.22
2023-02-27T21:01:51.250Z,102912.16
2023-02-27T21:04:22.565Z,102917.16
2023-02-27T21:06:51.189Z,102902.88
2023-02-27T21:09:20.870Z,102904.19
2023-02-27T21:11:49.197Z,102903.84
2023-02-27T21:14:17.557Z,102901.66
2023-02-27T21:16:45.850Z,102901.56
2023-02-27T21:19:14.225Z,102903.69
2023-02-27T21:21:42.597Z,102906.81
2023-02-27T21:24:11.001Z,102904.63
2023-02-27T21:26:40.783Z,102908.00
2023-02-27T21:29:11.911Z,102904.44
2023-02-27T21:31:41.230Z,102912.06
2023-02-27T21:34:13.867Z,102906.66
2023-02-27T21:36:44.548Z,102909.22
2023-02-27T21:39:16.376Z,102907.50
2023-02-27T21:41:47.027Z,102910.03
2023-02-27T21:44:17.959Z,102906.25
2023-02-27T21:46:47.080Z,102916.59
2023-02-27T21:49:19.386Z,102911.94
2023-02-27T21:51:48.261Z,102907.91
2023-02-27T21:54:18.519Z,102915.31
2023-02-27T21:56:49.935Z,102900.81
2023-02-27T21:59:20.858Z,102901.28
2023-02-27T22:01:49.162Z,102910.31
2023-02-27T22:04:19.885Z,102911.63
2023-02-27T22:06:49.234Z,102896.88
2023-02-27T22:09:18.291Z,102906.16
2023-02-27T22:11:49.113Z,102916.25
2023-02-27T22:14:17.829Z,102908.47
2023-02-27T22:16:46.101Z,102912.19
2023-02-27T22:19:19.800Z,102906.28
2023-02-27T22:21:48.482Z,102907.31
2023-02-27T22:24:17.056Z,102908.59
2023-02-27T22:26:45.825Z,102909.88
2023-02-27T22:29:15.544Z,102914.63
2023-02-27T22:31:43.965Z,102918.56
2023-02-27T22:34:18.161Z,102911.59
2023-02-27T22:36:48.538Z,102911.84
2023-02-27T22:39:16.901Z,102922.50
2023-02-27T22:41:46.134Z,102921.69
2023-02-27T22:44:17.565Z,102926.22
2023-02-27T22:46:48.605Z,102924.34
2023-02-27T22:49:18.700Z,102931.56
2023-02-27T22:51:50.752Z,102929.34
2023-02-27T22:54:22.676Z,102936.78
2023-02-27T22:56:52.145Z,102937.03
2023-02-27T22:59:21.963Z,102941.75
2023-02-27T23:01:50.991Z,102937.69
2023-02-27T23:04:20.788Z,102940.59
2023-02-27T23:06:51.574Z,102948.81
2023-02-27T23:09:24.172Z,102950.91
2023-02-27T23:11:53.029Z,102951.38
2023-02-27T23:14:23.533Z,102957.13
2023-02-27T23:16:51.876Z,102952.03
2023-02-27T23:19:22.692Z,102958.41
2023-02-27T23:21:51.437Z,102956.00
2023-02-27T23:24:21.276Z,102953.75
2023-02-27T23:26:52.284Z,102953.75
2023-02-27T23:29:20.528Z,102962.81
2023-02-27T23:31:50.389Z,102960.56
2023-02-27T23:34:18.754Z,102958.38
2023-02-27T23:36:47.015Z,102963.13
2023-02-27T23:39:15.327Z,102962.31
2023-02-27T23:41:43.570Z,102960.69
2023-02-27T23:44:29.521Z,102954.53
2023-02-27T23:46:59.138Z,102955.81
2023-02-27T23:49:27.430Z,102953.38
2023-02-27T23:51:55.729Z,102964.47
2023-02-27T23:54:26.154Z,102952.19
2023-02-27T23:56:54.621Z,102959.63
2023-02-27T23:59:22.915Z,102958.00
